createdAt,value
2023-03-08T00:00:15.532Z,28.50
2023-03-08T00:02:41.919Z,28.40
2023-03-08T00:05:09.145Z,29.77
2023-03-08T00:07:35.586Z,30.27
2023-03-08T00:10:01.979Z,28.83
2023-03-08T00:12:28.941Z,30.00
2023-03-08T00:14:55.345Z,31.38
2023-03-08T00:17:22.097Z,30.10
2023-03-08T00:19:51.197Z,32.22
2023-03-08T00:22:17.577Z,28.98
2023-03-08T00:24:43.973Z,28.75
2023-03-08T00:27:10.360Z,28.88
2023-03-08T00:29:36.747Z,29.52
2023-03-08T00:32:03.287Z,31.73
2023-03-08T00:34:29.724Z,32.15
2023-03-08T00:36:56.131Z,31.90
2023-03-08T00:39:22.498Z,32.75
2023-03-08T00:41:48.998Z,29.83
2023-03-08T00:44:15.380Z,31.75
2023-03-08T00:46:41.840Z,30.30
2023-03-08T00:49:09.261Z,29.83
2023-03-08T00:51:35.653Z,31.40
2023-03-08T00:54:02.040Z,31.50
2023-03-08T00:56:28.423Z,32.22
2023-03-08T00:58:54.811Z,34.00
2023-03-08T01:01:21.261Z,32.00
2023-03-08T01:03:47.710Z,32.33
2023-03-08T01:06:15.112Z,31.70
2023-03-08T01:08:42.097Z,32.60
2023-03-08T01:11:19.109Z,31.15
2023-03-08T01:13:45.596Z,33.95
2023-03-08T01:16:20.452Z,31.35
2023-03-08T01:18:46.995Z,30.48
2023-03-08T01:21:13.528Z,32.38
2023-03-08T01:23:42.219Z,31.65
2023-03-08T01:26:12.670Z,31.15
2023-03-08T01:28:39.323Z,29.77
2023-03-08T01:31:08.675Z,32.65
2023-03-08T01:33:35.303Z,30.05
2023-03-08T01:36:08.882Z,30.35
2023-03-08T01:38:35.898Z,31.27
2023-03-08T01:41:03.767Z,31.48
2023-03-08T01:43:37.918Z,30.48
2023-03-08T01:46:05.965Z,31.92
2023-03-08T01:48:36.910Z,29.80
2023-03-08T01:51:05.020Z,31.92
2023-03-08T01:53:32.503Z,31.65
2023-03-08T01:55:58.946Z,30.50
2023-03-08T01:58:26.062Z,29.08
2023-03-08T02:00:52.479Z,30.83
2023-03-08T02:03:18.852Z,31.42
2023-03-08T02:05:45.283Z,28.20
2023-03-08T02:08:11.681Z,30.17
2023-03-08T02:10:38.272Z,30.02
2023-03-08T02:13:06.390Z,31.55
2023-03-08T02:15:32.876Z,29.67
2023-03-08T02:17:59.291Z,30.33
2023-03-08T02:20:32.620Z,27.35
2023-03-08T02:23:16.934Z,30.70
2023-03-08T02:25:51.005Z,31.38
2023-03-08T02:28:17.933Z,30.33
2023-03-08T02:30:44.363Z,28.95
2023-03-08T02:33:10.818Z,29.75
2023-03-08T02:35:38.675Z,29.23
2023-03-08T02:38:05.118Z,30.15
2023-03-08T02:40:31.629Z,29.70
2023-03-08T02:42:58.067Z,30.67
2023-03-08T02:45:24.490Z,29.90
2023-03-08T02:47:51.227Z,28.70
2023-03-08T02:50:17.753Z,30.40
2023-03-08T02:52:44.195Z,30.65
2023-03-08T02:55:10.700Z,29.02
2023-03-08T02:57:37.072Z,28.63
2023-03-08T03:00:04.497Z,28.00
2023-03-08T03:02:33.250Z,26.85
2023-03-08T03:04:59.687Z,29.38
2023-03-08T03:07:26.097Z,27.52
2023-03-08T03:09:52.571Z,28.05
2023-03-08T03:12:18.945Z,27.67
2023-03-08T03:14:45.337Z,28.88
2023-03-08T03:17:11.737Z,26.85
2023-03-08T03:19:38.458Z,30.17
2023-03-08T03:22:04.844Z,28.70
2023-03-08T03:24:31.244Z,27.95
2023-03-08T03:26:57.670Z,28.92
2023-03-08T03:29:24.139Z,29.50
2023-03-08T03:31:50.508Z,26.63
2023-03-08T03:34:16.909Z,27.75
2023-03-08T03:36:43.282Z,27.75
2023-03-08T03:39:09.667Z,26.85
2023-03-08T03:41:36.045Z,28.88
2023-03-08T03:44:02.569Z,26.15
2023-03-08T03:46:29.121Z,28.83
2023-03-08T03:48:55.539Z,26.38
2023-03-08T03:51:23.001Z,25.83
2023-03-08T03:53:49.777Z,25.40
2023-03-08T03:56:24.283Z,24.50
2023-03-08T03:58:51.627Z,24.80
2023-03-08T04:01:27.351Z,25.88
2023-03-08T04:03:55.004Z,28.35
2023-03-08T04:06:27.334Z,26.65
2023-03-08T04:11:29.265Z,24.83
2023-03-08T04:13:55.875Z,25.00
2023-03-08T04:16:24.435Z,28.23
2023-03-08T04:18:55.952Z,27.77
2023-03-08T04:21:23.299Z,26.77
2023-03-08T04:23:49.787Z,26.88
2023-03-08T04:26:16.201Z,25.92
2023-03-08T04:28:42.945Z,27.42
2023-03-08T04:31:12.160Z,26.15
2023-03-08T04:33:38.667Z,25.58
2023-03-08T04:36:05.298Z,30.13
2023-03-08T04:38:33.336Z,28.35
2023-03-08T04:41:05.175Z,26.60
2023-03-08T04:43:34.634Z,27.67
2023-03-08T04:46:01.572Z,26.58
2023-03-08T04:48:28.339Z,24.00
2023-03-08T04:50:56.085Z,24.95
2023-03-08T04:53:23.750Z,24.73
2023-03-08T04:55:50.501Z,27.50
2023-03-08T04:58:17.227Z,24.02
2023-03-08T05:00:43.633Z,24.88
2023-03-08T05:03:10.163Z,24.35
2023-03-08T05:05:36.558Z,24.52
2023-03-08T05:08:05.904Z,26.58
2023-03-08T05:10:32.400Z,25.67
2023-03-08T05:12:58.818Z,26.48
2023-03-08T05:15:25.223Z,25.95
2023-03-08T05:17:51.623Z,25.50
2023-03-08T05:20:18.310Z,26.83
2023-03-08T05:22:57.939Z,26.88
2023-03-08T05:25:25.172Z,26.23
2023-03-08T05:27:51.567Z,28.20
2023-03-08T05:30:18.288Z,25.92
2023-03-08T05:32:44.701Z,27.15
2023-03-08T05:35:11.107Z,27.48
2023-03-08T05:37:37.500Z,27.38
2023-03-08T05:40:06.369Z,27.00
2023-03-08T05:42:33.339Z,25.77
2023-03-08T05:44:59.732Z,26.80
2023-03-08T05:47:26.165Z,26.38
2023-03-08T05:49:52.541Z,26.98
2023-03-08T05:52:18.911Z,26.20
2023-03-08T05:54:45.274Z,26.45
2023-03-08T05:57:11.646Z,25.63
2023-03-08T05:59:38.072Z,26.45
2023-03-08T06:02:04.552Z,24.77
2023-03-08T06:04:31.021Z,26.40
2023-03-08T06:06:57.411Z,26.10
2023-03-08T06:09:23.828Z,25.88
2023-03-08T06:11:50.214Z,25.27
2023-03-08T06:14:16.582Z,25.83
2023-03-08T06:16:43.336Z,25.15
2023-03-08T06:19:09.743Z,23.75
2023-03-08T06:21:36.140Z,22.70
2023-03-08T06:24:02.502Z,23.00
2023-03-08T06:26:28.952Z,22.80
2023-03-08T06:28:55.320Z,22.50
2023-03-08T06:31:21.712Z,21.95
2023-03-08T06:33:48.159Z,21.48
2023-03-08T06:36:19.702Z,21.23
2023-03-08T06:38:47.002Z,14.80
2023-03-08T06:41:15.028Z,19.77
2023-03-08T06:43:41.819Z,19.15
2023-03-08T06:46:11.386Z,18.77
2023-03-08T06:48:38.178Z,20.25
2023-03-08T06:51:05.404Z,17.92
2023-03-08T06:53:32.746Z,17.75
2023-03-08T06:56:02.827Z,15.05
2023-03-08T06:58:29.320Z,12.85
2023-03-08T07:00:55.757Z,11.43
2023-03-08T07:03:22.932Z,12.80
2023-03-08T07:05:49.326Z,11.23
2023-03-08T07:08:15.718Z,9.95
2023-03-08T07:10:42.099Z,9.70
2023-03-08T07:13:08.501Z,8.95
2023-03-08T07:15:34.944Z,9.80
2023-03-08T07:18:01.371Z,9.05
2023-03-08T07:20:27.900Z,8.60
2023-03-08T07:22:54.597Z,8.98
2023-03-08T07:25:21.621Z,6.85
2023-03-08T07:27:48.294Z,5.43
2023-03-08T07:30:16.346Z,6.93
2023-03-08T07:32:42.929Z,7.70
2023-03-08T07:35:11.455Z,7.45
2023-03-08T07:37:38.110Z,7.05
2023-03-08T07:40:05.772Z,7.13
2023-03-08T07:42:32.199Z,7.43
2023-03-08T07:44:58.667Z,7.55
2023-03-08T07:47:25.040Z,6.68
2023-03-08T07:49:51.484Z,7.15
2023-03-08T07:52:17.862Z,6.90
2023-03-08T07:54:44.323Z,6.95
2023-03-08T07:57:14.411Z,6.93
2023-03-08T07:59:41.782Z,6.40
2023-03-08T08:02:13.035Z,5.88
2023-03-08T08:04:40.227Z,6.10
2023-03-08T08:07:07.154Z,6.30
2023-03-08T08:09:33.962Z,5.85
2023-03-08T08:12:00.331Z,6.13
2023-03-08T08:14:26.715Z,6.80
2023-03-08T08:16:53.076Z,6.72
2023-03-08T08:19:19.472Z,6.95
2023-03-08T08:21:46.398Z,6.78
2023-03-08T08:24:12.882Z,6.88
2023-03-08T08:26:39.274Z,5.68
2023-03-08T08:29:05.679Z,6.22
2023-03-08T08:31:32.045Z,5.97
2023-03-08T08:33:59.197Z,6.15
2023-03-08T08:36:26.320Z,5.80
2023-03-08T08:38:52.780Z,6.50
2023-03-08T08:41:20.837Z,6.38
2023-03-08T08:43:47.890Z,5.90
2023-03-08T08:46:15.958Z,5.25
2023-03-08T08:48:42.748Z,5.32
2023-03-08T08:51:12.306Z,5.68
2023-03-08T08:53:38.874Z,6.20
2023-03-08T08:56:23.814Z,5.63
2023-03-08T08:58:52.434Z,6.20
2023-03-08T09:01:21.561Z,6.07
2023-03-08T09:03:48.464Z,6.05
2023-03-08T09:06:16.031Z,8.30
2023-03-08T09:08:42.875Z,12.63
2023-03-08T09:11:10.608Z,6.47
2023-03-08T09:13:42.248Z,6.25
2023-03-08T09:16:22.824Z,6.75
2023-03-08T09:18:49.409Z,7.63
2023-03-08T09:21:16.265Z,11.45
2023-03-08T09:23:43.142Z,6.78
2023-03-08T09:26:09.758Z,7.07
2023-03-08T09:28:36.342Z,6.18
2023-03-08T09:31:11.951Z,7.95
2023-03-08T09:33:42.789Z,6.72
2023-03-08T09:36:09.719Z,6.53
2023-03-08T09:38:36.161Z,10.45
2023-03-08T09:41:10.905Z,8.32
2023-03-08T09:44:01.511Z,6.38
2023-03-08T09:46:34.455Z,17.63
2023-03-08T09:49:01.942Z,10.35
2023-03-08T09:51:34.222Z,7.10
2023-03-08T09:56:39.910Z,12.20
2023-03-08T09:59:12.491Z,6.15
2023-03-08T10:01:43.091Z,8.07
2023-03-08T10:04:14.771Z,8.13
2023-03-08T10:06:55.148Z,5.82
2023-03-08T10:09:31.055Z,6.78
2023-03-08T10:12:05.695Z,5.38
2023-03-08T10:14:43.600Z,5.63
2023-03-08T10:17:14.457Z,9.68
2023-03-08T10:19:46.489Z,7.15
2023-03-08T10:22:25.044Z,7.20
2023-03-08T10:25:31.391Z,5.32
2023-03-08T10:28:00.174Z,4.88
2023-03-08T10:30:35.203Z,4.68
2023-03-08T10:33:06.695Z,5.57
2023-03-08T10:35:39.302Z,5.70
2023-03-08T10:38:15.524Z,4.70
2023-03-08T10:40:41.982Z,4.13
2023-03-08T10:43:16.991Z,4.15
2023-03-08T10:45:43.358Z,3.97
2023-03-08T10:48:20.732Z,4.38
2023-03-08T10:51:01.779Z,4.03
2023-03-08T10:53:29.869Z,3.30
2023-03-08T10:55:58.696Z,2.70
2023-03-08T10:58:37.555Z,2.92
2023-03-08T11:01:34.227Z,2.83
2023-03-08T11:04:06.465Z,2.90
2023-03-08T11:09:03.531Z,3.00
2023-03-08T11:11:41.052Z,2.83
2023-03-08T11:14:09.863Z,3.22
2023-03-08T11:16:59.381Z,3.20
2023-03-08T11:19:53.782Z,3.33
2023-03-08T11:22:49.347Z,3.00
2023-03-08T11:25:33.941Z,2.80
2023-03-08T11:28:29.266Z,3.78
2023-03-08T11:31:13.165Z,3.40
2023-03-08T11:34:05.119Z,3.22
2023-03-08T11:36:49.614Z,3.60
2023-03-08T11:39:36.235Z,2.90
2023-03-08T11:42:14.217Z,3.10
2023-03-08T11:44:52.291Z,2.80
2023-03-08T11:48:12.780Z,3.40
2023-03-08T11:50:43.313Z,2.70
2023-03-08T11:53:12.676Z,3.05
2023-03-08T11:55:38.974Z,2.70
2023-03-08T11:58:22.233Z,2.90
2023-03-08T12:00:50.142Z,3.53
2023-03-08T12:03:19.408Z,3.65
2023-03-08T12:05:57.680Z,3.53
2023-03-08T12:08:30.390Z,3.22
2023-03-08T12:11:08.639Z,3.55
2023-03-08T12:13:38.008Z,3.78
2023-03-08T12:16:23.040Z,3.25
2023-03-08T12:19:27.088Z,3.65
2023-03-08T12:22:39.205Z,4.15
2023-03-08T12:25:12.898Z,5.10
2023-03-08T12:27:52.184Z,4.65
2023-03-08T12:30:41.825Z,5.07
2023-03-08T12:33:12.124Z,4.95
2023-03-08T12:36:10.323Z,4.25
2023-03-08T12:38:44.646Z,4.15
2023-03-08T12:41:27.512Z,4.85
2023-03-08T12:44:02.943Z,4.80
2023-03-08T12:46:56.350Z,4.75
2023-03-08T12:49:35.611Z,7.03
2023-03-08T12:52:06.426Z,6.25
2023-03-08T12:54:34.750Z,4.97
2023-03-08T12:57:04.126Z,4.18
2023-03-08T12:59:38.600Z,5.20
2023-03-08T13:02:23.830Z,4.95
2023-03-08T13:05:05.245Z,5.25
2023-03-08T13:07:40.117Z,5.50
2023-03-08T13:10:19.560Z,6.85
2023-03-08T13:13:09.192Z,5.75
2023-03-08T13:15:36.858Z,6.07
2023-03-08T13:18:09.401Z,5.20
2023-03-08T13:20:54.335Z,6.30
2023-03-08T13:23:32.725Z,5.68
2023-03-08T13:26:26.495Z,5.55
2023-03-08T13:28:53.462Z,5.18
2023-03-08T13:31:22.279Z,6.57
2023-03-08T13:33:51.104Z,7.82
2023-03-08T13:36:22.247Z,7.95
2023-03-08T13:39:07.081Z,7.90
2023-03-08T13:41:43.608Z,5.05
2023-03-08T13:44:23.144Z,8.35
2023-03-08T13:46:51.966Z,10.30
2023-03-08T13:49:36.086Z,6.13
2023-03-08T13:52:05.233Z,11.18
2023-03-08T13:54:34.912Z,6.82
2023-03-08T13:57:03.831Z,6.70
2023-03-08T13:59:31.116Z,13.65
2023-03-08T14:01:58.006Z,7.95
2023-03-08T14:04:30.081Z,6.00
2023-03-08T14:06:58.759Z,9.15
2023-03-08T14:09:25.882Z,12.77
2023-03-08T14:12:02.659Z,10.18
2023-03-08T14:14:32.787Z,7.43
2023-03-08T14:16:59.556Z,10.15
2023-03-08T14:19:31.663Z,6.90
2023-03-08T14:22:00.295Z,9.05
2023-03-08T14:24:29.213Z,7.88
2023-03-08T14:27:00.295Z,8.30
2023-03-08T14:29:28.886Z,11.57
2023-03-08T14:32:10.703Z,8.13
2023-03-08T14:34:40.680Z,13.45
2023-03-08T14:37:24.761Z,7.90
2023-03-08T14:39:53.335Z,8.00
2023-03-08T14:42:27.554Z,12.45
2023-03-08T14:44:59.270Z,10.82
2023-03-08T14:47:31.144Z,12.23
2023-03-08T14:50:01.916Z,15.45
2023-03-08T14:52:29.650Z,9.88
2023-03-08T14:54:56.117Z,8.35
2023-03-08T14:57:28.397Z,8.82
2023-03-08T15:02:23.211Z,9.45
2023-03-08T15:04:49.587Z,8.77
2023-03-08T15:07:24.864Z,11.20
2023-03-08T15:09:51.818Z,9.85
2023-03-08T15:12:18.440Z,8.88
2023-03-08T15:14:45.181Z,8.23
2023-03-08T15:17:11.618Z,10.85
2023-03-08T15:19:38.028Z,8.98
2023-03-08T15:22:05.617Z,9.20
2023-03-08T15:24:31.989Z,11.13
2023-03-08T15:26:58.390Z,7.95
2023-03-08T15:29:30.223Z,8.88
2023-03-08T15:31:57.581Z,9.77
2023-03-08T15:34:27.500Z,9.23
2023-03-08T15:36:54.622Z,8.98
2023-03-08T15:39:21.016Z,9.25
2023-03-08T15:41:47.572Z,9.48
2023-03-08T15:44:13.938Z,9.32
2023-03-08T15:46:40.362Z,11.38
2023-03-08T15:49:06.838Z,9.75
2023-03-08T15:51:35.853Z,9.95
2023-03-08T15:54:03.332Z,9.93
2023-03-08T15:56:29.726Z,10.38
2023-03-08T15:58:56.604Z,9.07
2023-03-08T16:01:24.713Z,8.77
2023-03-08T16:03:55.567Z,8.85
2023-03-08T16:06:22.589Z,8.10
2023-03-08T16:08:49.065Z,8.38
2023-03-08T16:11:17.533Z,9.15
2023-03-08T16:13:43.947Z,8.40
2023-03-08T16:16:10.405Z,9.07
2023-03-08T16:18:36.966Z,10.32
2023-03-08T16:21:08.762Z,10.13
2023-03-08T16:23:36.024Z,10.23
2023-03-08T16:26:15.839Z,10.20
2023-03-08T16:28:45.000Z,10.23
2023-03-08T16:31:11.616Z,9.35
2023-03-08T16:33:38.059Z,10.15
2023-03-08T16:36:04.527Z,9.15
2023-03-08T16:38:31.166Z,9.65
2023-03-08T16:41:11.493Z,9.90
2023-03-08T16:43:46.279Z,10.52
2023-03-08T16:46:19.427Z,10.55
2023-03-08T16:48:49.488Z,11.35
2023-03-08T16:51:18.074Z,11.27
2023-03-08T16:53:44.453Z,12.15
2023-03-08T16:56:17.783Z,13.57
2023-03-08T16:58:44.176Z,12.20
2023-03-08T17:01:17.934Z,11.73
2023-03-08T17:03:44.375Z,13.15
2023-03-08T17:06:13.274Z,13.13
2023-03-08T17:08:39.653Z,12.98
2023-03-08T17:11:07.057Z,12.10
2023-03-08T17:13:33.524Z,12.75
2023-03-08T17:15:59.974Z,13.70
2023-03-08T17:18:26.485Z,14.10
2023-03-08T17:20:53.257Z,12.32
2023-03-08T17:23:20.125Z,12.30
2023-03-08T17:25:46.546Z,13.48
2023-03-08T17:28:12.915Z,13.30
2023-03-08T17:30:41.195Z,13.68
2023-03-08T17:33:09.024Z,13.52
2023-03-08T17:35:39.631Z,13.60
2023-03-08T17:38:06.373Z,14.50
2023-03-08T17:40:32.974Z,16.02
2023-03-08T17:43:02.299Z,17.42
2023-03-08T17:45:29.202Z,16.77
2023-03-08T17:48:01.093Z,15.70
2023-03-08T17:50:29.789Z,15.18
2023-03-08T17:52:56.754Z,16.10
2023-03-08T17:55:23.983Z,15.73
2023-03-08T17:57:50.525Z,15.90
2023-03-08T18:00:17.155Z,17.05
2023-03-08T18:02:43.845Z,16.35
2023-03-08T18:05:10.950Z,16.65
2023-03-08T18:07:39.868Z,17.05
2023-03-08T18:10:10.791Z,17.17
2023-03-08T18:12:37.178Z,16.67
2023-03-08T18:15:04.341Z,16.25
2023-03-08T18:17:30.753Z,18.25
2023-03-08T18:19:57.164Z,17.80
2023-03-08T18:22:23.534Z,18.75
2023-03-08T18:24:50.008Z,19.92
2023-03-08T18:27:16.423Z,20.85
2023-03-08T18:29:42.902Z,22.13
2023-03-08T18:32:10.330Z,21.15
2023-03-08T18:34:38.543Z,22.23
2023-03-08T18:37:05.169Z,21.55
2023-03-08T18:39:31.614Z,22.73
2023-03-08T18:41:59.895Z,23.42
2023-03-08T18:44:26.382Z,23.02
2023-03-08T18:46:52.940Z,22.70
2023-03-08T18:49:19.592Z,23.92
2023-03-08T18:51:46.084Z,23.77
2023-03-08T18:54:14.289Z,25.33
2023-03-08T18:56:40.772Z,25.38
2023-03-08T18:59:07.872Z,24.60
2023-03-08T19:01:34.626Z,24.77
2023-03-08T19:04:06.942Z,25.70
2023-03-08T19:09:02.030Z,24.70
2023-03-08T19:11:28.875Z,26.52
2023-03-08T19:13:55.383Z,26.65
2023-03-08T19:16:25.104Z,27.05
2023-03-08T19:18:57.120Z,28.15
2023-03-08T19:21:35.660Z,28.65
2023-03-08T19:24:02.575Z,30.67
2023-03-08T19:26:36.815Z,29.63
2023-03-08T19:29:17.293Z,27.98
2023-03-08T19:32:05.134Z,30.30
2023-03-08T19:34:40.270Z,30.88
2023-03-08T19:37:07.019Z,30.45
2023-03-08T19:39:35.792Z,45.15
2023-03-08T19:42:05.267Z,40.83
2023-03-08T19:44:32.700Z,36.30
2023-03-08T19:46:59.567Z,33.70
2023-03-08T19:49:29.382Z,34.00
2023-03-08T19:51:57.585Z,32.95
2023-03-08T19:54:25.773Z,32.67
2023-03-08T19:56:52.241Z,32.38
2023-03-08T19:59:18.807Z,33.20
2023-03-08T20:01:46.088Z,32.28
2023-03-08T20:04:12.589Z,32.97
2023-03-08T20:06:41.819Z,31.27
2023-03-08T20:09:09.798Z,32.17
2023-03-08T20:11:36.679Z,32.15
2023-03-08T20:14:03.396Z,30.38
2023-03-08T20:16:30.749Z,29.60
2023-03-08T20:18:57.689Z,30.73
2023-03-08T20:21:27.295Z,30.85
2023-03-08T20:23:57.437Z,33.17
2023-03-08T20:26:27.204Z,31.95
2023-03-08T20:28:54.014Z,30.58
2023-03-08T20:31:23.143Z,31.35
2023-03-08T20:33:49.919Z,31.10
2023-03-08T20:36:16.363Z,30.08
2023-03-08T20:38:42.750Z,31.58
2023-03-08T20:41:13.163Z,31.67
2023-03-08T20:43:39.660Z,34.65
2023-03-08T20:46:09.001Z,30.05
2023-03-08T20:48:36.877Z,31.42
2023-03-08T20:51:04.719Z,31.48
2023-03-08T20:53:32.002Z,30.02
2023-03-08T20:55:58.693Z,29.95
2023-03-08T20:58:25.840Z,28.92
2023-03-08T21:00:52.760Z,28.10
2023-03-08T21:03:19.312Z,29.58
2023-03-08T21:05:46.096Z,39.70
2023-03-08T21:08:12.502Z,34.50
2023-03-08T21:10:39.424Z,27.75
2023-03-08T21:13:12.862Z,29.13
2023-03-08T21:15:39.473Z,27.58
2023-03-08T21:18:06.089Z,26.63
2023-03-08T21:20:36.263Z,27.30
2023-03-08T21:23:02.630Z,31.45
2023-03-08T21:25:29.677Z,27.25
2023-03-08T21:27:56.086Z,28.80
2023-03-08T21:30:22.449Z,29.10
2023-03-08T21:32:50.213Z,28.83
2023-03-08T21:35:16.654Z,28.80
2023-03-08T21:37:43.146Z,28.77
2023-03-08T21:40:10.460Z,28.27
2023-03-08T21:42:36.932Z,29.73
2023-03-08T21:45:03.699Z,28.85
2023-03-08T21:47:30.230Z,27.13
2023-03-08T21:49:56.683Z,27.17
2023-03-08T21:52:23.046Z,26.30
2023-03-08T21:54:49.430Z,25.67
2023-03-08T21:57:15.824Z,26.67
2023-03-08T21:59:42.251Z,26.88
2023-03-08T22:02:10.203Z,28.90
2023-03-08T22:04:37.862Z,26.92
2023-03-08T22:07:04.236Z,29.05
2023-03-08T22:09:30.621Z,28.33
2023-03-08T22:11:58.426Z,28.35
2023-03-08T22:14:24.889Z,27.67
2023-03-08T22:16:51.267Z,27.38
2023-03-08T22:19:18.058Z,27.70
2023-03-08T22:21:44.518Z,26.38
2023-03-08T22:24:10.910Z,27.35
2023-03-08T22:26:37.290Z,27.15
2023-03-08T22:29:03.702Z,28.15
2023-03-08T22:31:30.442Z,27.88
2023-03-08T22:33:57.316Z,26.70
2023-03-08T22:36:23.727Z,25.90
2023-03-08T22:38:50.234Z,28.08
2023-03-08T22:41:19.645Z,26.48
2023-03-08T22:43:46.518Z,26.88
2023-03-08T22:46:16.294Z,28.75
2023-03-08T22:48:44.619Z,27.77
2023-03-08T22:51:11.837Z,29.08
2023-03-08T22:53:39.207Z,29.08
2023-03-08T22:56:06.307Z,29.50
2023-03-08T22:58:32.671Z,26.73
2023-03-08T23:00:59.287Z,27.38
2023-03-08T23:03:26.025Z,27.15
2023-03-08T23:05:52.467Z,27.48
2023-03-08T23:08:18.871Z,27.30
2023-03-08T23:10:45.251Z,27.45
2023-03-08T23:13:16.483Z,26.83
2023-03-08T23:15:48.895Z,26.75
2023-03-08T23:18:15.343Z,26.88
2023-03-08T23:20:41.767Z,27.02
2023-03-08T23:23:08.270Z,27.33
2023-03-08T23:25:34.741Z,26.83
2023-03-08T23:28:01.180Z,27.65
2023-03-08T23:30:27.619Z,27.48
2023-03-08T23:32:53.984Z,29.00
2023-03-08T23:35:20.436Z,28.10
2023-03-08T23:37:46.994Z,25.15
2023-03-08T23:40:14.101Z,26.98
2023-03-08T23:42:41.261Z,28.05
2023-03-08T23:45:08.996Z,27.65
2023-03-08T23:47:35.630Z,28.05
2023-03-08T23:50:02.068Z,29.13
2023-03-08T23:52:28.609Z,29.25
2023-03-08T23:54:55.164Z,30.13
2023-03-08T23:57:21.539Z,27.48
2023-03-08T23:59:47.954Z,29.27
